Time;durP1;ratioP1;P1;durP2;ratioP2;P2;SDS_P1;SDS_P2;PMS_P1;PMS_P2;Temp;Humidity;BMP_temperature;BMP_pressure;BME280_temperature;BME280_humidity;BME280_pressure;Samples;Min_cycle;Max_cycle;Signal;HPM_P1;HPM_P2
2022/08/13 00:00:24;;;;;;;6.20;2.80;;;;;;;;;;5081491;28;20023;-60
2022/08/13 00:02:51;;;;;;;7.05;2.63;;;;;;;;;;5078830;28;20118;-61
2022/08/13 00:05:18;;;;;;;5.00;2.70;;;;;;;;;;5090300;28;20153;-60
2022/08/13 00:07:44;;;;;;;3.50;2.05;;;;;;;;;;5089407;28;20074;-60
2022/08/13 00:10:10;;;;;;;10.20;2.78;;;;;;;;;;5090462;28;20064;-60
2022/08/13 00:12:56;;;;;;;4.15;2.08;;;;;;;;;;5086731;28;20040;-59
2022/08/13 00:15:26;;;;;;;6.63;2.38;;;;;;;;;;5085107;28;20027;-61
2022/08/13 00:17:52;;;;;;;6.95;2.60;;;;;;;;;;5089694;28;20123;-60
2022/08/13 00:20:20;;;;;;;4.45;2.25;;;;;;;;;;5086595;28;20020;-60
2022/08/13 00:22:48;;;;;;;4.63;2.35;;;;;;;;;;5089216;28;20024;-61
2022/08/13 00:25:14;;;;;;;7.95;3.00;;;;;;;;;;5081923;28;20110;-60
2022/08/13 00:27:47;;;;;;;6.20;2.42;;;;;;;;;;5076300;28;20081;-60
2022/08/13 00:30:15;;;;;;;3.13;2.30;;;;;;;;;;5085082;28;20111;-60
2022/08/13 00:32:42;;;;;;;5.18;2.53;;;;;;;;;;5075571;28;20078;-60
2022/08/13 00:35:09;;;;;;;6.40;2.45;;;;;;;;;;5084661;28;20027;-60
2022/08/13 00:37:37;;;;;;;3.90;2.13;;;;;;;;;;5085034;28;20021;-61
2022/08/13 00:40:03;;;;;;;6.60;2.28;;;;;;;;;;5092126;28;20031;-60
2022/08/13 00:42:29;;;;;;;5.75;2.40;;;;;;;;;;5091252;28;20031;-60
2022/08/13 00:44:55;;;;;;;4.43;2.40;;;;;;;;;;5090232;28;20502;-61
2022/08/13 00:50:06;;;;;;;3.30;2.20;;;;;;;;;;5092100;28;20510;-61
2022/08/13 00:52:38;;;;;;;6.18;2.40;;;;;;;;;;5089042;28;20029;-60
2022/08/13 00:55:07;;;;;;;7.20;2.28;;;;;;;;;;5093519;28;20024;-60
2022/08/13 00:57:33;;;;;;;7.28;2.45;;;;;;;;;;5093474;28;20047;-60
2022/08/13 00:59:59;;;;;;;8.45;2.78;;;;;;;;;;5090897;28;20391;-60
2022/08/13 01:02:25;;;;;;;6.82;2.60;;;;;;;;;;5086110;28;20028;-60
2022/08/13 01:04:51;;;;;;;7.20;2.40;;;;;;;;;;5088105;28;20032;-60
2022/08/13 01:07:18;;;;;;;4.72;2.40;;;;;;;;;;5087809;28;20388;-60
2022/08/13 01:09:44;;;;;;;3.10;1.95;;;;;;;;;;5090443;28;20491;-61
2022/08/13 01:12:11;;;;;;;4.68;2.20;;;;;;;;;;5087011;28;20103;-60
2022/08/13 01:14:37;;;;;;;4.78;2.45;;;;;;;;;;5092390;28;20032;-59
2022/08/13 01:17:04;;;;;;;3.70;2.40;;;;;;;;;;5092333;28;20028;-60
2022/08/13 01:19:31;;;;;;;4.03;2.85;;;;;;;;;;5085873;28;20017;-60
2022/08/13 01:21:59;;;;;;;6.50;2.28;;;;;;;;;;5088181;28;20521;-60
2022/08/13 01:24:25;;;;;;;5.28;2.70;;;;;;;;;;5088491;28;20032;-60
2022/08/13 01:26:53;;;;;;;5.53;2.50;;;;;;;;;;5088232;28;20024;-60
2022/08/13 01:29:19;;;;;;;4.65;2.30;;;;;;;;;;5090294;28;20054;-60
2022/08/13 01:31:45;;;;;;;5.43;2.17;;;;;;;;;;5089662;28;20032;-60
2022/08/13 01:34:13;;;;;;;7.55;2.30;;;;;;;;;;5087692;28;20039;-60
2022/08/13 01:36:39;;;;;;;6.00;3.08;;;;;;;;;;5085446;28;20035;-61
2022/08/13 01:39:05;;;;;;;4.45;2.50;;;;;;;;;;5086486;28;20476;-60
2022/08/13 01:41:32;;;;;;;6.53;2.70;;;;;;;;;;5089084;28;20032;-60
2022/08/13 01:44:04;;;;;;;4.97;2.45;;;;;;;;;;5086957;28;20032;-60
2022/08/13 01:52:01;;;;;;;4.63;2.28;;;;;;;;;;5089525;28;20047;-60
2022/08/13 01:54:28;;;;;;;5.97;2.65;;;;;;;;;;5088088;28;20030;-61
2022/08/13 01:56:59;;;;;;;8.73;2.53;;;;;;;;;;5090310;28;20563;-60
2022/08/13 01:59:25;;;;;;;13.48;2.47;;;;;;;;;;5086555;28;20020;-60
2022/08/13 02:01:53;;;;;;;4.32;2.22;;;;;;;;;;5080402;28;20368;-61
2022/08/13 02:04:20;;;;;;;6.95;2.95;;;;;;;;;;5079097;28;20115;-60
2022/08/13 02:06:47;;;;;;;7.07;2.55;;;;;;;;;;5090098;28;20119;-60
2022/08/13 02:09:13;;;;;;;7.68;2.45;;;;;;;;;;5080050;28;20078;-60
2022/08/13 02:11:39;;;;;;;6.95;2.40;;;;;;;;;;5085333;28;20040;-60
2022/08/13 02:14:05;;;;;;;5.32;2.45;;;;;;;;;;5082827;28;20032;-60
2022/08/13 02:16:36;;;;;;;3.75;2.15;;;;;;;;;;5082297;28;20024;-60
2022/08/13 02:19:03;;;;;;;7.93;2.38;;;;;;;;;;5091903;28;20024;-60
2022/08/13 02:21:32;;;;;;;4.25;2.70;;;;;;;;;;5090121;28;20033;-61
2022/08/13 02:23:59;;;;;;;6.07;2.33;;;;;;;;;;5091392;28;20511;-60
2022/08/13 02:26:27;;;;;;;4.63;2.55;;;;;;;;;;5082279;28;20543;-61
2022/08/13 02:28:57;;;;;;;4.07;2.33;;;;;;;;;;5091631;28;20057;-61
2022/08/13 02:31:23;;;;;;;6.13;2.20;;;;;;;;;;5084069;28;20020;-61
2022/08/13 02:33:52;;;;;;;5.07;2.60;;;;;;;;;;5086456;28;20114;-60
2022/08/13 02:36:21;;;;;;;8.52;2.60;;;;;;;;;;5090428;28;20028;-60
2022/08/13 02:38:53;;;;;;;7.53;2.22;;;;;;;;;;5084183;28;20021;-60
2022/08/13 02:44:04;;;;;;;5.45;2.42;;;;;;;;;;5087274;28;20058;-60
2022/08/13 02:46:30;;;;;;;3.20;2.40;;;;;;;;;;5087061;28;20040;-60
2022/08/13 02:49:01;;;;;;;3.80;2.40;;;;;;;;;;5090904;28;20032;-60
2022/08/13 02:51:28;;;;;;;4.90;2.55;;;;;;;;;;5092200;28;20113;-60
2022/08/13 02:53:54;;;;;;;6.55;2.60;;;;;;;;;;5084713;28;20130;-61
2022/08/13 02:56:20;;;;;;;4.85;2.65;;;;;;;;;;5090579;28;20197;-60
2022/08/13 02:58:46;;;;;;;3.95;2.42;;;;;;;;;;5090649;28;20031;-61
2022/08/13 03:01:14;;;;;;;5.35;2.45;;;;;;;;;;5075932;28;20024;-61
2022/08/13 03:03:40;;;;;;;6.03;2.55;;;;;;;;;;5085295;28;20032;-61
2022/08/13 03:06:08;;;;;;;12.02;3.38;;;;;;;;;;5086534;28;20472;-61
2022/08/13 03:08:34;;;;;;;4.97;3.08;;;;;;;;;;5076139;28;20403;-60
2022/08/13 03:11:00;;;;;;;6.93;2.13;;;;;;;;;;5085547;28;20036;-60
2022/08/13 03:13:28;;;;;;;3.78;2.58;;;;;;;;;;5089998;28;20506;-60
2022/08/13 03:15:55;;;;;;;5.65;2.35;;;;;;;;;;5086787;28;20027;-61
2022/08/13 03:18:22;;;;;;;8.32;2.92;;;;;;;;;;5089563;28;20034;-60
2022/08/13 03:20:49;;;;;;;4.90;2.58;;;;;;;;;;5089718;28;20029;-60
2022/08/13 03:23:15;;;;;;;3.92;2.40;;;;;;;;;;5091383;28;20036;-60
2022/08/13 03:25:41;;;;;;;4.75;2.60;;;;;;;;;;5084825;28;20032;-61
2022/08/13 03:28:07;;;;;;;5.75;2.55;;;;;;;;;;5083521;28;20027;-60
2022/08/13 03:30:34;;;;;;;5.25;2.28;;;;;;;;;;5085439;28;20028;-60
2022/08/13 03:33:04;;;;;;;3.83;2.50;;;;;;;;;;5089480;28;20084;-60
2022/08/13 03:35:30;;;;;;;3.47;2.13;;;;;;;;;;5086578;28;20031;-59
2022/08/13 03:37:56;;;;;;;4.93;2.78;;;;;;;;;;5088109;28;20024;-60
2022/08/13 03:40:24;;;;;;;5.95;2.83;;;;;;;;;;5081260;28;20154;-60
2022/08/13 03:42:51;;;;;;;4.50;2.70;;;;;;;;;;5086296;28;20118;-60
2022/08/13 03:45:17;;;;;;;6.18;2.75;;;;;;;;;;5084681;28;20084;-61
2022/08/13 03:47:44;;;;;;;5.20;2.80;;;;;;;;;;5089604;28;20701;-61
2022/08/13 03:50:11;;;;;;;3.58;2.55;;;;;;;;;;5089521;28;20040;-60
2022/08/13 03:52:37;;;;;;;4.57;2.75;;;;;;;;;;5089585;28;20466;-60
2022/08/13 03:55:09;;;;;;;4.65;3.08;;;;;;;;;;5085444;28;20077;-60
2022/08/13 03:57:40;;;;;;;5.28;2.97;;;;;;;;;;5088278;28;20719;-60
2022/08/13 04:00:13;;;;;;;4.80;2.78;;;;;;;;;;5086882;28;20040;-61
2022/08/13 04:02:40;;;;;;;5.50;2.60;;;;;;;;;;5080012;28;20108;-61
2022/08/13 04:05:11;;;;;;;8.45;2.72;;;;;;;;;;5083977;28;20454;-60
2022/08/13 04:07:37;;;;;;;4.88;2.58;;;;;;;;;;5095973;28;20028;-61
2022/08/13 04:10:04;;;;;;;4.78;2.40;;;;;;;;;;5082319;28;20112;-60
2022/08/13 04:12:30;;;;;;;4.97;2.80;;;;;;;;;;5095296;28;20024;-61
2022/08/13 04:14:56;;;;;;;11.90;2.92;;;;;;;;;;5088720;28;20035;-60
2022/08/13 04:17:22;;;;;;;4.32;3.00;;;;;;;;;;5095139;28;20024;-60
2022/08/13 04:19:48;;;;;;;6.60;2.90;;;;;;;;;;5092239;28;20035;-60
2022/08/13 04:22:14;;;;;;;4.53;2.58;;;;;;;;;;5091063;28;20480;-61
2022/08/13 04:24:40;;;;;;;9.68;3.28;;;;;;;;;;5093756;28;20502;-59
2022/08/13 04:27:06;;;;;;;4.13;2.40;;;;;;;;;;5095168;28;20040;-60
2022/08/13 04:29:33;;;;;;;5.35;2.50;;;;;;;;;;5094485;28;20160;-61
2022/08/13 04:32:03;;;;;;;4.32;2.72;;;;;;;;;;5093892;28;20055;-61
2022/08/13 04:34:29;;;;;;;4.05;2.83;;;;;;;;;;5095386;28;20101;-60
2022/08/13 04:36:56;;;;;;;4.03;2.53;;;;;;;;;;5088472;28;20052;-61
2022/08/13 04:39:24;;;;;;;3.60;2.15;;;;;;;;;;5084924;28;20028;-60
2022/08/13 04:41:50;;;;;;;4.80;2.88;;;;;;;;;;5093555;28;20071;-60
2022/08/13 04:44:16;;;;;;;4.75;2.45;;;;;;;;;;5091580;28;20496;-60
2022/08/13 04:46:42;;;;;;;7.10;3.08;;;;;;;;;;5085802;28;20028;-60
2022/08/13 04:49:10;;;;;;;4.20;2.88;;;;;;;;;;5094128;28;20045;-60
2022/08/13 04:51:36;;;;;;;8.32;2.92;;;;;;;;;;5093178;28;20711;-60
2022/08/13 04:54:02;;;;;;;4.82;2.60;;;;;;;;;;5091155;28;20502;-60
2022/08/13 04:56:29;;;;;;;4.68;2.22;;;;;;;;;;5082063;28;20048;-60
2022/08/13 04:58:55;;;;;;;3.42;2.42;;;;;;;;;;5092932;28;20506;-60
2022/08/13 05:01:21;;;;;;;3.70;2.60;;;;;;;;;;5090038;28;20020;-60
2022/08/13 05:03:48;;;;;;;6.10;2.55;;;;;;;;;;5089419;28;20115;-61
2022/08/13 05:06:21;;;;;;;7.03;2.65;;;;;;;;;;5091065;28;20107;-60
2022/08/13 05:08:47;;;;;;;;;;;;;;;;;;5095995;28;20077;-60
2022/08/13 05:11:14;;;;;;;4.63;2.63;;;;;;;;;;5090865;28;19961;-60
2022/08/13 05:13:41;;;;;;;5.30;2.42;;;;;;;;;;5095458;28;20039;-61
2022/08/13 05:16:08;;;;;;;8.90;2.78;;;;;;;;;;5088002;28;20080;-60
2022/08/13 05:18:35;;;;;;;6.82;2.75;;;;;;;;;;5089294;28;20123;-60
2022/08/13 05:21:03;;;;;;;6.03;3.17;;;;;;;;;;5092109;28;20383;-60
2022/08/13 05:23:30;;;;;;;6.90;3.42;;;;;;;;;;5092400;28;20027;-60
2022/08/13 05:25:59;;;;;;;6.25;2.95;;;;;;;;;;5084735;28;20646;-60
2022/08/13 05:28:25;;;;;;;4.20;2.80;;;;;;;;;;5091768;28;20031;-60
2022/08/13 05:30:51;;;;;;;3.60;2.63;;;;;;;;;;5089373;28;20117;-60
2022/08/13 05:33:22;;;;;;;5.85;2.80;;;;;;;;;;5085842;28;20031;-60
2022/08/13 05:35:49;;;;;;;5.13;2.70;;;;;;;;;;5078611;28;20111;-59
2022/08/13 05:38:16;;;;;;;6.50;2.90;;;;;;;;;;5080568;28;20464;-60
2022/08/13 05:40:45;;;;;;;5.32;2.70;;;;;;;;;;5079843;28;21579;-60
2022/08/13 05:43:13;;;;;;;3.88;2.80;;;;;;;;;;5092175;28;20038;-60
2022/08/13 05:45:39;;;;;;;4.88;2.88;;;;;;;;;;5087071;28;20086;-60
2022/08/13 05:48:05;;;;;;;5.85;2.95;;;;;;;;;;5091661;28;20042;-60
2022/08/13 05:50:33;;;;;;;3.95;2.90;;;;;;;;;;5087083;28;20111;-60
2022/08/13 05:53:07;;;;;;;5.68;2.90;;;;;;;;;;5092508;28;20107;-60
2022/08/13 05:55:34;;;;;;;5.68;3.22;;;;;;;;;;5088193;28;20024;-60
2022/08/13 05:58:00;;;;;;;7.88;2.88;;;;;;;;;;5086899;28;20101;-60
2022/08/13 06:03:27;;;;;;;7.32;3.40;;;;;;;;;;5088181;28;20399;-60
2022/08/13 06:05:54;;;;;;;5.25;2.58;;;;;;;;;;5088083;28;20055;-60
2022/08/13 06:08:30;;;;;;;7.90;2.50;;;;;;;;;;5083381;28;20472;-60
2022/08/13 06:11:00;;;;;;;6.45;3.00;;;;;;;;;;5088438;28;20485;-60
2022/08/13 06:13:27;;;;;;;5.70;3.00;;;;;;;;;;5090745;28;20471;-61
2022/08/13 06:16:00;;;;;;;8.27;2.85;;;;;;;;;;5089776;28;20024;-60
2022/08/13 06:18:26;;;;;;;;;;;;;;;;;;5085523;28;20148;-60
2022/08/13 06:20:54;;;;;;;8.05;3.03;;;;;;;;;;5082793;28;19973;-60
2022/08/13 06:23:22;;;;;;;5.22;3.03;;;;;;;;;;5087088;28;20467;-60
2022/08/13 06:25:51;;;;;;;4.07;3.22;;;;;;;;;;5082714;28;20028;-60
2022/08/13 06:28:19;;;;;;;7.97;3.50;;;;;;;;;;5089993;28;20036;-60
2022/08/13 06:30:45;;;;;;;5.65;2.70;;;;;;;;;;5080310;28;20081;-60
2022/08/13 06:33:12;;;;;;;6.20;3.00;;;;;;;;;;5078204;28;20448;-60
2022/08/13 06:35:38;;;;;;;3.95;3.08;;;;;;;;;;5089544;28;20020;-60
2022/08/13 06:38:06;;;;;;;4.97;2.92;;;;;;;;;;5078792;28;20395;-60
2022/08/13 06:40:35;;;;;;;4.40;2.53;;;;;;;;;;5082019;28;20031;-61
2022/08/13 06:43:01;;;;;;;5.75;3.15;;;;;;;;;;5089470;28;20020;-61
2022/08/13 06:45:27;;;;;;;7.28;2.90;;;;;;;;;;5090028;28;20119;-60
2022/08/13 06:47:53;;;;;;;8.10;3.25;;;;;;;;;;5090592;28;20983;-60
2022/08/13 06:50:19;;;;;;;5.50;3.22;;;;;;;;;;5088472;28;20024;-60
2022/08/13 06:52:46;;;;;;;8.10;3.25;;;;;;;;;;5086056;28;20036;-60
2022/08/13 06:55:12;;;;;;;4.72;2.92;;;;;;;;;;5075315;28;20032;-60
2022/08/13 06:57:39;;;;;;;5.07;2.80;;;;;;;;;;5083238;28;20055;-60
2022/08/13 07:00:09;;;;;;;7.40;3.05;;;;;;;;;;5090430;28;20084;-61
2022/08/13 07:02:36;;;;;;;5.53;3.00;;;;;;;;;;5086446;28;20095;-61
2022/08/13 07:05:04;;;;;;;7.60;3.35;;;;;;;;;;5085050;28;20120;-61
2022/08/13 07:07:31;;;;;;;6.95;3.20;;;;;;;;;;5087358;28;20051;-61
2022/08/13 07:09:57;;;;;;;7.45;3.10;;;;;;;;;;5089041;28;20103;-59
2022/08/13 07:12:24;;;;;;;5.63;3.13;;;;;;;;;;5085838;28;20492;-59
2022/08/13 07:14:50;;;;;;;3.88;2.70;;;;;;;;;;5091368;28;20136;-59
2022/08/13 07:17:16;;;;;;;5.75;2.90;;;;;;;;;;5091845;28;20099;-59
2022/08/13 07:19:42;;;;;;;5.07;2.72;;;;;;;;;;5087109;28;20107;-59
2022/08/13 07:22:08;;;;;;;6.00;3.35;;;;;;;;;;5082940;28;20020;-58
2022/08/13 07:24:34;;;;;;;5.93;3.30;;;;;;;;;;5074726;28;20081;-59
2022/08/13 07:27:04;;;;;;;9.25;3.42;;;;;;;;;;5089455;28;20111;-59
2022/08/13 07:29:32;;;;;;;6.95;3.75;;;;;;;;;;5091409;28;20075;-60
2022/08/13 07:32:01;;;;;;;7.35;3.30;;;;;;;;;;5089970;28;20121;-59
2022/08/13 07:34:32;;;;;;;8.93;3.40;;;;;;;;;;5087554;28;20039;-58
2022/08/13 07:36:59;;;;;;;4.68;3.20;;;;;;;;;;5090085;28;20024;-58
2022/08/13 07:39:25;;;;;;;9.50;3.85;;;;;;;;;;5084914;28;20028;-58
2022/08/13 07:41:52;;;;;;;6.85;3.05;;;;;;;;;;5077445;28;20028;-58
2022/08/13 07:44:22;;;;;;;5.45;2.80;;;;;;;;;;5084086;28;20047;-59
2022/08/13 07:46:51;;;;;;;5.32;2.80;;;;;;;;;;5089319;28;20076;-58
2022/08/13 07:49:18;;;;;;;5.72;2.80;;;;;;;;;;5088825;28;20116;-58
2022/08/13 07:51:46;;;;;;;7.45;3.05;;;;;;;;;;5088289;28;20106;-59
2022/08/13 07:54:13;;;;;;;8.65;2.88;;;;;;;;;;5089989;28;20023;-59
2022/08/13 07:56:39;;;;;;;5.20;3.15;;;;;;;;;;5089334;28;20044;-58
2022/08/13 07:59:09;;;;;;;5.47;2.83;;;;;;;;;;5084123;28;20357;-59
2022/08/13 08:01:55;;;;;;;4.90;2.53;;;;;;;;;;5078246;28;20173;-59
2022/08/13 08:04:22;;;;;;;6.38;2.83;;;;;;;;;;5077550;28;20134;-59
2022/08/13 08:06:49;;;;;;;5.35;2.83;;;;;;;;;;5089854;28;20024;-59
2022/08/13 08:09:19;;;;;;;5.95;2.85;;;;;;;;;;5090285;28;20564;-59
2022/08/13 08:14:30;;;;;;;6.03;3.13;;;;;;;;;;5085801;28;20617;-59
2022/08/13 08:16:56;;;;;;;6.05;2.90;;;;;;;;;;5080370;28;20043;-59
2022/08/13 08:19:22;;;;;;;4.82;2.83;;;;;;;;;;5078349;28;20052;-59
2022/08/13 08:21:48;;;;;;;7.45;3.17;;;;;;;;;;5088842;28;20046;-59
2022/08/13 08:24:15;;;;;;;6.03;3.10;;;;;;;;;;5087534;28;20110;-59
2022/08/13 08:26:46;;;;;;;4.43;2.70;;;;;;;;;;5082719;28;20479;-59
2022/08/13 08:29:12;;;;;;;7.90;3.03;;;;;;;;;;5084150;28;20139;-59
2022/08/13 08:31:41;;;;;;;5.88;3.03;;;;;;;;;;5085066;28;20024;-59
2022/08/13 08:34:08;;;;;;;4.43;2.80;;;;;;;;;;5083704;28;20036;-59
2022/08/13 08:36:37;;;;;;;8.02;2.85;;;;;;;;;;5085095;28;20028;-59
2022/08/13 08:44:35;;;;;;;5.47;2.58;;;;;;;;;;5072166;28;20071;-59
2022/08/13 08:47:02;;;;;;;5.03;2.90;;;;;;;;;;5071295;28;20093;-59
2022/08/13 08:49:30;;;;;;;6.22;2.67;;;;;;;;;;5086469;28;20093;-60
2022/08/13 08:51:56;;;;;;;5.18;2.67;;;;;;;;;;5089330;28;20058;-58
2022/08/13 08:54:23;;;;;;;5.28;2.97;;;;;;;;;;5082948;28;20112;-59
2022/08/13 08:56:52;;;;;;;5.35;2.25;;;;;;;;;;5091549;28;20044;-60
2022/08/13 08:59:20;;;;;;;4.82;2.70;;;;;;;;;;5091624;28;20028;-59
2022/08/13 09:01:46;;;;;;;7.40;2.90;;;;;;;;;;5089069;28;20028;-59
2022/08/13 09:04:13;;;;;;;9.82;2.85;;;;;;;;;;5084018;28;20035;-59
2022/08/13 09:06:40;;;;;;;6.35;2.83;;;;;;;;;;5073924;28;20029;-59
2022/08/13 09:09:08;;;;;;;5.88;2.67;;;;;;;;;;5085195;28;20031;-59
2022/08/13 09:11:36;;;;;;;8.88;2.67;;;;;;;;;;5090424;28;20032;-59
2022/08/13 09:14:08;;;;;;;4.70;3.08;;;;;;;;;;5083904;28;20029;-60
2022/08/13 09:16:34;;;;;;;5.10;2.90;;;;;;;;;;5086234;28;20059;-59
2022/08/13 09:19:00;;;;;;;8.63;2.50;;;;;;;;;;5090845;28;20562;-59
2022/08/13 09:21:26;;;;;;;6.13;2.58;;;;;;;;;;5083244;28;20028;-58
2022/08/13 09:23:52;;;;;;;6.15;3.03;;;;;;;;;;5082997;28;20036;-59
2022/08/13 09:26:20;;;;;;;4.13;2.55;;;;;;;;;;5089549;28;20031;-59
2022/08/13 09:28:46;;;;;;;6.88;2.88;;;;;;;;;;5084854;28;20039;-59
2022/08/13 09:31:12;;;;;;;8.90;3.10;;;;;;;;;;5088399;28;20032;-59
2022/08/13 09:33:39;;;;;;;7.28;2.90;;;;;;;;;;5090516;28;20032;-60
2022/08/13 09:36:11;;;;;;;7.28;3.00;;;;;;;;;;5088851;28;20031;-59
2022/08/13 09:38:38;;;;;;;7.20;2.55;;;;;;;;;;5079544;28;20027;-59
2022/08/13 09:41:17;;;;;;;5.65;2.88;;;;;;;;;;5085794;28;20027;-59
2022/08/13 09:43:44;;;;;;;4.68;3.15;;;;;;;;;;5083835;28;20090;-59
2022/08/13 09:46:10;;;;;;;8.02;2.90;;;;;;;;;;5082624;28;20550;-59
2022/08/13 09:48:37;;;;;;;6.00;2.90;;;;;;;;;;5085127;28;20039;-60
2022/08/13 09:51:03;;;;;;;6.70;3.20;;;;;;;;;;5080162;28;20736;-60
2022/08/13 09:53:29;;;;;;;6.85;3.30;;;;;;;;;;5082885;28;20032;-60
2022/08/13 09:55:56;;;;;;;7.25;3.08;;;;;;;;;;5079541;28;20032;-59
2022/08/13 09:58:25;;;;;;;10.80;3.42;;;;;;;;;;5084644;28;20387;-59
2022/08/13 10:00:52;;;;;;;6.35;2.85;;;;;;;;;;5084103;28;21851;-59
2022/08/13 10:03:18;;;;;;;4.53;3.08;;;;;;;;;;5082229;28;20020;-59
2022/08/13 10:05:47;;;;;;;5.32;3.30;;;;;;;;;;5091700;28;20504;-59
2022/08/13 10:08:14;;;;;;;6.40;3.20;;;;;;;;;;5090446;28;20148;-59
2022/08/13 10:10:41;;;;;;;5.88;3.15;;;;;;;;;;5090550;28;20043;-59
2022/08/13 10:13:07;;;;;;;6.05;3.33;;;;;;;;;;5083074;28;20479;-59
2022/08/13 10:15:33;;;;;;;8.88;3.80;;;;;;;;;;5091166;28;20020;-59
2022/08/13 10:18:00;;;;;;;6.57;3.45;;;;;;;;;;5086389;28;20114;-59
2022/08/13 10:20:32;;;;;;;6.40;3.67;;;;;;;;;;5088324;28;20020;-59
2022/08/13 10:22:58;;;;;;;7.78;3.38;;;;;;;;;;5084241;28;20028;-58
2022/08/13 10:25:25;;;;;;;9.38;4.28;;;;;;;;;;5088148;28;20111;-59
2022/08/13 10:27:51;;;;;;;5.68;3.90;;;;;;;;;;5091087;28;20032;-59
2022/08/13 10:30:24;;;;;;;9.05;3.67;;;;;;;;;;5086295;28;20020;-59
2022/08/13 10:32:54;;;;;;;5.60;4.13;;;;;;;;;;5090742;28;20040;-58
2022/08/13 10:35:20;;;;;;;6.47;3.65;;;;;;;;;;5089328;28;20111;-59
2022/08/13 10:37:46;;;;;;;6.60;3.92;;;;;;;;;;5086082;28;20028;-59
2022/08/13 10:40:14;;;;;;;5.80;3.30;;;;;;;;;;5084107;28;20030;-59
2022/08/13 10:42:41;;;;;;;7.28;3.70;;;;;;;;;;5083818;28;20060;-59
2022/08/13 10:45:07;;;;;;;7.15;3.15;;;;;;;;;;5087971;28;20024;-59
2022/08/13 10:47:33;;;;;;;16.27;4.45;;;;;;;;;;5088136;28;20031;-59
2022/08/13 10:50:00;;;;;;;4.43;3.38;;;;;;;;;;5084931;28;20036;-58
2022/08/13 10:52:26;;;;;;;4.97;3.38;;;;;;;;;;5087669;28;20028;-59
2022/08/13 10:54:53;;;;;;;5.85;3.70;;;;;;;;;;5087500;28;20119;-58
2022/08/13 10:57:19;;;;;;;7.38;3.13;;;;;;;;;;5086832;28;20496;-59
2022/08/13 10:59:45;;;;;;;6.57;3.45;;;;;;;;;;5085546;28;20039;-59
2022/08/13 11:02:11;;;;;;;7.88;3.10;;;;;;;;;;5088938;28;20502;-59
2022/08/13 11:04:37;;;;;;;10.55;3.58;;;;;;;;;;5086104;28;20486;-59
2022/08/13 11:07:04;;;;;;;4.88;3.10;;;;;;;;;;5084838;28;20043;-58
2022/08/13 11:09:30;;;;;;;8.90;3.95;;;;;;;;;;5080091;28;20024;-59
2022/08/13 11:12:00;;;;;;;8.68;3.88;;;;;;;;;;5086550;28;20471;-59
2022/08/13 11:14:28;;;;;;;7.30;3.47;;;;;;;;;;5088727;28;20498;-59
2022/08/13 11:16:56;;;;;;;7.72;3.58;;;;;;;;;;5086067;28;20480;-58
2022/08/13 11:19:26;;;;;;;6.32;3.75;;;;;;;;;;5085216;28;20028;-58
2022/08/13 11:21:52;;;;;;;7.18;3.28;;;;;;;;;;5091492;28;20039;-58
2022/08/13 11:24:18;;;;;;;4.88;3.53;;;;;;;;;;5091872;28;20356;-58
2022/08/13 11:26:47;;;;;;;5.15;3.28;;;;;;;;;;5089536;28;20445;-60
2022/08/13 11:29:13;;;;;;;4.47;2.90;;;;;;;;;;5088832;28;20106;-58
2022/08/13 11:31:39;;;;;;;6.43;2.53;;;;;;;;;;5088214;28;20032;-59
2022/08/13 11:34:05;;;;;;;6.18;2.42;;;;;;;;;;5089468;28;20054;-60
2022/08/13 11:36:32;;;;;;;6.40;2.40;;;;;;;;;;5082135;28;20476;-60
2022/08/13 11:38:58;;;;;;;5.97;2.78;;;;;;;;;;5081515;28;20053;-58
2022/08/13 11:41:24;;;;;;;5.22;2.88;;;;;;;;;;5081461;28;20103;-59
2022/08/13 11:43:51;;;;;;;3.65;2.50;;;;;;;;;;5082855;28;20452;-59
2022/08/13 11:46:17;;;;;;;3.83;2.42;;;;;;;;;;5088772;28;20498;-58
2022/08/13 11:48:43;;;;;;;5.28;2.80;;;;;;;;;;5087200;28;20028;-58
2022/08/13 11:51:09;;;;;;;4.32;1.95;;;;;;;;;;5073519;28;20107;-59
2022/08/13 11:53:35;;;;;;;5.53;2.38;;;;;;;;;;5079462;28;20085;-59
2022/08/13 11:56:01;;;;;;;3.00;2.22;;;;;;;;;;5080027;28;20028;-59
2022/08/13 11:58:28;;;;;;;7.72;3.25;;;;;;;;;;5083454;28;20459;-59
2022/08/13 12:00:54;;;;;;;5.75;3.00;;;;;;;;;;5077531;28;20033;-59
2022/08/13 12:03:20;;;;;;;8.05;2.42;;;;;;;;;;5082237;28;20396;-59
2022/08/13 12:05:46;;;;;;;4.38;2.78;;;;;;;;;;5090945;28;20475;-59
2022/08/13 12:08:16;;;;;;;9.05;2.92;;;;;;;;;;5080189;28;20039;-59
2022/08/13 12:10:42;;;;;;;4.82;2.60;;;;;;;;;;5088706;28;20038;-59
2022/08/13 12:13:09;;;;;;;31.75;4.32;;;;;;;;;;5088448;28;20111;-59
2022/08/13 12:15:35;;;;;;;54.72;7.50;;;;;;;;;;5087132;28;20032;-59
2022/08/13 12:18:01;;;;;;;9.77;2.80;;;;;;;;;;5086502;28;20112;-58
2022/08/13 12:20:27;;;;;;;6.25;3.13;;;;;;;;;;5087786;28;20107;-58
2022/08/13 12:22:54;;;;;;;3.33;2.83;;;;;;;;;;5085184;28;20036;-59
2022/08/13 12:25:22;;;;;;;5.65;3.17;;;;;;;;;;5089004;28;20050;-59
2022/08/13 12:27:48;;;;;;;8.50;3.65;;;;;;;;;;5084649;28;20025;-59
2022/08/13 12:30:14;;;;;;;6.85;3.38;;;;;;;;;;5091507;28;20021;-59
2022/08/13 12:32:40;;;;;;;6.75;3.35;;;;;;;;;;5095031;28;20459;-59
2022/08/13 12:35:06;;;;;;;6.43;3.25;;;;;;;;;;5094702;28;20044;-59
2022/08/13 12:37:32;;;;;;;3.53;2.75;;;;;;;;;;5094654;28;20022;-59
2022/08/13 12:39:59;;;;;;;4.00;2.88;;;;;;;;;;5088960;28;20028;-60
2022/08/13 12:42:25;;;;;;;7.78;2.80;;;;;;;;;;5089138;28;20035;-60
2022/08/13 12:44:51;;;;;;;5.25;3.08;;;;;;;;;;5091045;28;20112;-60
2022/08/13 12:47:18;;;;;;;6.00;3.38;;;;;;;;;;5094360;28;20027;-60
2022/08/13 12:49:44;;;;;;;6.10;3.40;;;;;;;;;;5081291;28;20107;-60
2022/08/13 12:52:09;;;;;;;4.60;3.63;;;;;;;;;;5094000;28;20383;-60
2022/08/13 12:54:35;;;;;;;7.72;3.83;;;;;;;;;;5093464;28;20107;-60
2022/08/13 12:57:01;;;;;;;5.65;3.05;;;;;;;;;;5082515;28;20037;-59
2022/08/13 12:59:27;;;;;;;5.68;3.58;;;;;;;;;;5075343;28;20032;-60
2022/08/13 13:01:53;;;;;;;6.18;3.28;;;;;;;;;;5081313;28;20470;-59
2022/08/13 13:04:23;;;;;;;6.30;3.50;;;;;;;;;;5094179;28;20031;-58
2022/08/13 13:06:50;;;;;;;5.65;3.13;;;;;;;;;;5093812;28;20024;-59
2022/08/13 13:09:16;;;;;;;4.65;3.28;;;;;;;;;;5094071;28;20034;-59
2022/08/13 13:11:42;;;;;;;3.15;2.83;;;;;;;;;;5092762;28;20726;-59
2022/08/13 13:14:08;;;;;;;10.20;3.80;;;;;;;;;;5078532;28;20074;-59
2022/08/13 13:16:35;;;;;;;6.32;3.35;;;;;;;;;;5084979;28;20380;-58
2022/08/13 13:19:01;;;;;;;2.83;2.63;;;;;;;;;;5085720;28;20043;-59
2022/08/13 13:21:31;;;;;;;7.75;3.53;;;;;;;;;;5093342;28;20440;-59
2022/08/13 13:23:57;;;;;;;6.10;2.95;;;;;;;;;;5090794;28;20036;-59
2022/08/13 13:26:23;;;;;;;5.93;3.55;;;;;;;;;;5078517;28;20035;-58
2022/08/13 13:28:52;;;;;;;7.40;3.17;;;;;;;;;;5078775;28;20467;-59
2022/08/13 13:31:18;;;;;;;6.97;3.35;;;;;;;;;;5093399;28;20016;-59
2022/08/13 13:33:44;;;;;;;10.50;3.40;;;;;;;;;;5076401;28;20648;-59
2022/08/13 13:36:10;;;;;;;5.63;2.97;;;;;;;;;;5074944;28;20031;-59
2022/08/13 13:38:36;;;;;;;5.30;3.00;;;;;;;;;;5076714;28;20103;-59
2022/08/13 13:41:02;;;;;;;7.18;3.58;;;;;;;;;;5082421;28;20380;-58
2022/08/13 13:43:28;;;;;;;6.22;2.95;;;;;;;;;;5072557;28;20028;-59
2022/08/13 13:45:58;;;;;;;7.47;3.75;;;;;;;;;;5092547;28;20035;-59
2022/08/13 13:48:26;;;;;;;4.82;3.05;;;;;;;;;;5092795;28;20028;-58
2022/08/13 13:50:55;;;;;;;3.72;3.03;;;;;;;;;;5093340;28;20036;-59
2022/08/13 13:53:21;;;;;;;5.43;2.83;;;;;;;;;;5089719;28;20024;-59
2022/08/13 13:55:47;;;;;;;6.55;2.78;;;;;;;;;;5081932;28;20035;-59
2022/08/13 13:58:18;;;;;;;3.50;2.47;;;;;;;;;;5074385;28;20473;-59
2022/08/13 14:00:44;;;;;;;5.85;2.35;;;;;;;;;;5090666;28;20031;-60
2022/08/13 14:03:10;;;;;;;3.90;2.20;;;;;;;;;;5086603;28;20032;-59
2022/08/13 14:05:38;;;;;;;3.13;2.42;;;;;;;;;;5090606;28;20074;-58
2022/08/13 14:08:04;;;;;;;8.70;2.88;;;;;;;;;;5083822;28;20033;-59
2022/08/13 14:10:31;;;;;;;3.10;2.20;;;;;;;;;;5074789;28;20054;-58
2022/08/13 14:12:59;;;;;;;5.78;1.90;;;;;;;;;;5088962;28;20024;-59
2022/08/13 14:15:25;;;;;;;6.20;2.05;;;;;;;;;;5084131;28;20506;-58
2022/08/13 14:17:53;;;;;;;5.53;2.22;;;;;;;;;;5079972;28;20086;-59
2022/08/13 14:20:19;;;;;;;2.85;1.60;;;;;;;;;;5092427;28;20060;-59
2022/08/13 14:22:45;;;;;;;4.10;2.03;;;;;;;;;;5091882;28;20027;-59
2022/08/13 14:25:12;;;;;;;2.85;1.63;;;;;;;;;;5091656;28;20472;-59
2022/08/13 14:27:39;;;;;;;4.03;1.92;;;;;;;;;;5092881;28;20472;-60
2022/08/13 14:30:06;;;;;;;2.45;1.63;;;;;;;;;;5090391;28;20115;-58
2022/08/13 14:32:32;;;;;;;7.07;2.25;;;;;;;;;;5085084;28;20032;-59
2022/08/13 14:35:00;;;;;;;6.70;1.92;;;;;;;;;;5085465;28;20043;-59
2022/08/13 14:37:26;;;;;;;5.45;2.15;;;;;;;;;;5087836;28;20107;-59
2022/08/13 14:39:53;;;;;;;3.75;2.20;;;;;;;;;;5088642;28;20039;-59
2022/08/13 14:42:26;;;;;;;3.35;1.83;;;;;;;;;;5082891;28;20024;-59
2022/08/13 14:45:39;;;;;;;3.38;2.03;;;;;;;;;;5084446;28;20060;-59
2022/08/13 14:47:38;;;;;;;3.67;2.45;;;;;;;;;;5084044;28;20028;-60
2022/08/13 14:50:06;;;;;;;2.72;2.00;;;;;;;;;;5079511;28;20032;-59
2022/08/13 14:52:32;;;;;;;5.38;1.90;;;;;;;;;;5088566;28;20025;-59
2022/08/13 14:55:00;;;;;;;3.00;1.90;;;;;;;;;;5091413;28;20039;-60
2022/08/13 14:57:26;;;;;;;5.30;2.10;;;;;;;;;;5090265;28;20036;-58
2022/08/13 14:59:52;;;;;;;3.95;2.10;;;;;;;;;;5089554;28;20369;-59
2022/08/13 15:02:19;;;;;;;3.38;1.85;;;;;;;;;;5089217;28;20035;-59
2022/08/13 15:04:46;;;;;;;5.32;2.28;;;;;;;;;;5079219;28;20429;-59